createdAt,value
2019-04-06T00:01:38.170Z,94.30
2019-04-06T00:04:04.989Z,94.10
2019-04-06T00:06:31.807Z,94.80
2019-04-06T00:08:58.612Z,96.10
2019-04-06T00:11:25.637Z,96.20
2019-04-06T00:13:52.593Z,96.00
2019-04-06T00:16:19.432Z,96.90
2019-04-06T00:18:46.251Z,96.10
2019-04-06T00:21:13.084Z,96.70
2019-04-06T00:23:39.962Z,96.40
2019-04-06T00:26:06.909Z,95.40
2019-04-06T00:28:33.835Z,95.80
2019-04-06T00:31:18.369Z,96.20
2019-04-06T00:33:45.264Z,96.30
2019-04-06T00:36:12.151Z,95.10
2019-04-06T00:38:39.299Z,95.40
2019-04-06T00:41:06.098Z,95.60
2019-04-06T00:43:32.892Z,95.80
2019-04-06T00:46:00.246Z,96.10
2019-04-06T00:48:27.069Z,94.80
2019-04-06T00:50:53.939Z,94.10
2019-04-06T00:53:20.777Z,94.20
2019-04-06T00:55:55.550Z,94.70
2019-04-06T00:58:16.467Z,94.40
2019-04-06T01:00:43.326Z,94.40
2019-04-06T01:03:10.113Z,94.50
2019-04-06T01:05:37.102Z,93.90
2019-04-06T01:08:04.285Z,91.70
2019-04-06T01:10:31.092Z,91.80
2019-04-06T01:12:57.902Z,91.60
2019-04-06T01:15:24.925Z,92.20
2019-04-06T01:17:51.695Z,92.90
2019-04-06T01:20:18.507Z,92.80
2019-04-06T01:22:45.364Z,93.20
2019-04-06T01:25:12.717Z,93.50
2019-04-06T01:27:39.588Z,93.70
2019-04-06T01:30:08.192Z,93.80
2019-04-06T01:32:35.293Z,93.60
2019-04-06T01:35:02.094Z,93.00
2019-04-06T01:37:29.030Z,93.40
2019-04-06T01:39:55.846Z,91.20
2019-04-06T01:42:22.715Z,89.60
2019-04-06T01:44:49.744Z,90.40
2019-04-06T01:47:16.988Z,91.20
2019-04-06T01:49:43.920Z,91.20
2019-04-06T01:52:10.769Z,91.30
2019-04-06T01:54:37.559Z,91.00
2019-04-06T01:57:04.436Z,90.40
2019-04-06T01:59:31.251Z,90.80
2019-04-06T02:02:02.423Z,90.60
2019-04-06T02:04:29.240Z,89.70
2019-04-06T02:06:56.192Z,89.50
2019-04-06T02:09:22.995Z,90.00
2019-04-06T02:11:50.155Z,89.30
2019-04-06T02:14:16.966Z,89.10
2019-04-06T02:16:44.040Z,89.10
2019-04-06T02:19:10.860Z,89.60
2019-04-06T02:21:37.865Z,88.90
2019-04-06T02:24:04.902Z,88.80
2019-04-06T02:26:31.744Z,87.80
2019-04-06T02:28:58.607Z,88.10
2019-04-06T02:31:30.315Z,88.40
2019-04-06T02:34:15.534Z,88.00
2019-04-06T02:36:44.133Z,87.40
2019-04-06T02:39:12.908Z,86.40
2019-04-06T02:41:45.801Z,86.90
2019-04-06T02:44:12.883Z,86.10
2019-04-06T02:46:39.956Z,85.40
2019-04-06T02:49:07.002Z,85.40
2019-04-06T02:51:33.841Z,84.40
2019-04-06T02:54:01.081Z,84.40
2019-04-06T02:56:28.086Z,84.90
2019-04-06T02:58:54.908Z,84.10
2019-04-06T03:01:21.726Z,84.60
2019-04-06T03:03:48.969Z,85.50
2019-04-06T03:06:16.099Z,84.90
2019-04-06T03:08:43.170Z,85.10
2019-04-06T03:11:09.993Z,85.70
2019-04-06T03:13:37.023Z,85.60
2019-04-06T03:16:03.964Z,85.70
2019-04-06T03:18:31.083Z,85.40
2019-04-06T03:20:58.154Z,85.30
2019-04-06T03:23:25.715Z,85.40
2019-04-06T03:25:53.261Z,85.00
2019-04-06T03:28:20.139Z,85.10
2019-04-06T03:30:47.096Z,85.50
2019-04-06T03:33:14.342Z,85.50
2019-04-06T03:35:46.750Z,85.40
2019-04-06T03:38:10.194Z,84.20
2019-04-06T03:40:37.031Z,84.30
2019-04-06T03:43:04.022Z,83.70
2019-04-06T03:45:31.163Z,84.00
2019-04-06T03:47:58.193Z,84.00
2019-04-06T03:50:25.344Z,83.10
2019-04-06T03:52:52.714Z,81.80
2019-04-06T03:55:19.758Z,82.50
2019-04-06T03:57:46.576Z,83.50
2019-04-06T04:00:14.169Z,82.10
2019-04-06T04:02:41.239Z,81.20
2019-04-06T04:05:08.837Z,81.80
2019-04-06T04:07:35.817Z,82.30
2019-04-06T04:10:06.404Z,83.40
2019-04-06T04:12:33.203Z,84.50
2019-04-06T04:14:59.931Z,83.90
2019-04-06T04:17:26.873Z,84.40
2019-04-06T04:19:53.651Z,84.70
2019-04-06T04:22:20.427Z,85.40
2019-04-06T04:24:47.314Z,86.00
2019-04-06T04:27:27.721Z,86.70
2019-04-06T04:29:43.716Z,86.60
2019-04-06T04:32:10.505Z,86.20
2019-04-06T04:34:37.672Z,86.10
2019-04-06T04:37:04.503Z,86.50
2019-04-06T04:39:31.312Z,86.90
2019-04-06T04:41:58.499Z,86.60
2019-04-06T04:44:25.275Z,86.40
2019-04-06T04:46:52.115Z,87.20
2019-04-06T04:49:18.908Z,86.70
2019-04-06T04:51:45.752Z,86.60
2019-04-06T04:54:12.607Z,87.90
2019-04-06T04:56:39.380Z,88.40
2019-04-06T04:59:06.219Z,88.60
2019-04-06T05:01:33.106Z,89.10
2019-04-06T05:03:59.986Z,88.60
2019-04-06T05:06:26.846Z,88.20
2019-04-06T05:08:53.682Z,87.60
2019-04-06T05:11:20.545Z,87.00
2019-04-06T05:13:47.203Z,88.40
2019-04-06T05:16:14.505Z,88.70
2019-04-06T05:18:42.805Z,88.60
2019-04-06T05:21:10.781Z,88.80
2019-04-06T05:23:37.583Z,89.60
2019-04-06T05:26:05.077Z,90.10
2019-04-06T05:28:32.192Z,90.00
2019-04-06T05:30:59.435Z,89.60
2019-04-06T05:33:26.227Z,89.50
2019-04-06T05:35:53.465Z,89.30
2019-04-06T05:38:20.475Z,89.20
2019-04-06T05:40:47.324Z,89.60
2019-04-06T05:43:14.169Z,90.60
2019-04-06T05:45:41.022Z,91.50
2019-04-06T05:48:07.997Z,92.20
2019-04-06T05:50:35.268Z,92.70
2019-04-06T05:53:02.517Z,93.70
2019-04-06T05:55:29.655Z,94.20
2019-04-06T05:58:03.458Z,94.80
2019-04-06T06:00:25.601Z,95.00
2019-04-06T06:02:52.375Z,95.50
2019-04-06T06:05:19.204Z,96.10
2019-04-06T06:07:46.049Z,96.10
2019-04-06T06:10:12.871Z,96.00
2019-04-06T06:12:39.674Z,96.30
2019-04-06T06:15:07.247Z,95.90
2019-04-06T06:17:34.168Z,96.20
2019-04-06T06:20:01.371Z,96.10
2019-04-06T06:22:28.164Z,95.30
2019-04-06T06:24:55.140Z,94.90
2019-04-06T06:27:23.027Z,94.30
2019-04-06T06:29:50.410Z,94.20
2019-04-06T06:32:17.213Z,93.80
2019-04-06T06:34:44.003Z,92.30
2019-04-06T06:37:10.799Z,93.30
2019-04-06T06:39:37.595Z,92.60
2019-04-06T06:42:04.452Z,92.80
2019-04-06T06:44:31.380Z,91.20
2019-04-06T06:46:58.129Z,90.90
2019-04-06T06:49:24.971Z,91.10
2019-04-06T06:51:51.978Z,90.90
2019-04-06T06:54:18.855Z,91.00
2019-04-06T06:56:45.857Z,91.40
2019-04-06T06:59:12.645Z,91.00
2019-04-06T07:01:39.719Z,91.00
2019-04-06T07:04:06.561Z,91.30
2019-04-06T07:06:33.391Z,90.90
2019-04-06T07:09:00.201Z,89.80
2019-04-06T07:11:27.199Z,89.60
2019-04-06T07:13:54.289Z,89.10
2019-04-06T07:16:21.185Z,88.80
2019-04-06T07:18:47.974Z,89.70
2019-04-06T07:21:16.661Z,91.30
2019-04-06T07:23:43.449Z,91.80
2019-04-06T07:26:10.297Z,92.50
2019-04-06T07:28:38.964Z,92.90
2019-04-06T07:31:05.833Z,93.00
2019-04-06T07:33:32.714Z,93.90
2019-04-06T07:35:59.495Z,94.80
2019-04-06T07:38:26.607Z,96.40
2019-04-06T07:40:53.631Z,97.30
2019-04-06T07:43:20.621Z,97.80
2019-04-06T07:45:47.519Z,98.30
2019-04-06T07:48:14.396Z,97.80
2019-04-06T07:50:41.500Z,98.40
2019-04-06T07:53:08.304Z,98.10
2019-04-06T07:55:35.465Z,98.30
2019-04-06T07:58:02.280Z,97.80
2019-04-06T08:00:29.263Z,97.50
2019-04-06T08:02:56.075Z,98.10
2019-04-06T08:05:22.885Z,99.20
2019-04-06T08:07:49.665Z,99.90
2019-04-06T08:10:16.497Z,99.90
2019-04-06T08:12:43.299Z,99.90
2019-04-06T08:15:10.271Z,99.50
2019-04-06T08:17:36.992Z,99.50
2019-04-06T08:20:06.626Z,99.90
2019-04-06T08:22:33.603Z,99.50
2019-04-06T08:25:00.586Z,99.90
2019-04-06T08:27:27.386Z,99.90
2019-04-06T08:29:54.170Z,99.90
2019-04-06T08:32:20.966Z,99.90
2019-04-06T08:34:48.043Z,99.90
2019-04-06T08:37:14.848Z,99.90
2019-04-06T08:39:41.714Z,99.90
2019-04-06T08:42:08.766Z,99.90
2019-04-06T08:44:35.886Z,99.90
2019-04-06T08:47:02.747Z,99.00
2019-04-06T08:49:29.700Z,99.90
2019-04-06T08:51:56.502Z,98.40
2019-04-06T08:54:23.303Z,98.90
2019-04-06T08:56:50.722Z,98.60
2019-04-06T08:59:17.542Z,98.70
2019-04-06T09:01:44.351Z,98.10
2019-04-06T09:04:11.297Z,98.90
2019-04-06T09:06:38.137Z,99.00
2019-04-06T09:09:06.531Z,98.90
2019-04-06T09:11:33.340Z,98.40
2019-04-06T09:14:00.146Z,95.60
2019-04-06T09:16:27.022Z,94.50
2019-04-06T09:18:53.949Z,93.80
2019-04-06T09:21:22.518Z,92.00
2019-04-06T09:23:49.599Z,93.60
2019-04-06T09:26:16.572Z,93.80
2019-04-06T09:28:43.694Z,95.10
2019-04-06T09:31:10.494Z,95.10
2019-04-06T09:33:37.537Z,96.30
2019-04-06T09:36:04.418Z,95.30
2019-04-06T09:38:31.199Z,94.10
2019-04-06T09:40:58.137Z,93.70
2019-04-06T09:43:25.418Z,94.60
2019-04-06T09:45:57.241Z,95.00
2019-04-06T09:48:26.601Z,94.20
2019-04-06T09:50:56.071Z,91.20
2019-04-06T09:53:33.481Z,92.30
2019-04-06T09:56:12.503Z,93.30
2019-04-06T09:58:51.615Z,93.20
2019-04-06T10:01:21.359Z,92.20
2019-04-06T10:03:56.933Z,90.10
2019-04-06T10:06:32.166Z,88.50
2019-04-06T10:09:16.828Z,87.90
2019-04-06T10:11:47.997Z,87.90
2019-04-06T10:14:33.436Z,87.10
2019-04-06T10:17:08.083Z,87.50
2019-04-06T10:19:54.685Z,85.40
2019-04-06T10:22:34.153Z,85.80
2019-04-06T10:25:11.002Z,84.60
2019-04-06T10:27:49.985Z,83.40
2019-04-06T10:30:36.238Z,83.40
2019-04-06T10:33:03.179Z,81.20
2019-04-06T10:35:42.062Z,81.50
2019-04-06T10:38:16.375Z,77.90
2019-04-06T10:40:47.531Z,77.10
2019-04-06T10:43:17.077Z,76.40
2019-04-06T10:45:46.677Z,75.10
2019-04-06T10:48:30.698Z,73.70
2019-04-06T10:51:03.882Z,72.10
2019-04-06T10:53:32.595Z,71.00
2019-04-06T10:56:04.235Z,71.30
2019-04-06T10:58:34.206Z,71.20
2019-04-06T11:01:10.148Z,69.90
2019-04-06T11:03:38.946Z,68.50
2019-04-06T11:06:24.449Z,69.60
2019-04-06T11:08:51.306Z,68.60
2019-04-06T11:11:20.761Z,70.90
2019-04-06T11:13:50.417Z,69.60
2019-04-06T11:16:35.364Z,68.20
2019-04-06T11:19:08.169Z,69.10
2019-04-06T11:21:45.999Z,66.60
2019-04-06T11:24:15.348Z,66.60
2019-04-06T11:26:52.793Z,67.60
2019-04-06T11:29:24.295Z,67.90
2019-04-06T11:31:53.924Z,66.70
2019-04-06T11:34:22.165Z,66.70
2019-04-06T11:36:55.125Z,66.10
2019-04-06T11:39:23.906Z,66.70
2019-04-06T11:42:09.362Z,65.50
2019-04-06T11:44:39.407Z,67.10
2019-04-06T11:47:16.098Z,66.10
2019-04-06T11:49:46.052Z,66.20
2019-04-06T11:52:17.607Z,68.30
2019-04-06T11:54:55.146Z,73.90
2019-04-06T11:57:29.550Z,73.40
2019-04-06T12:00:25.566Z,73.30
2019-04-06T12:02:54.280Z,74.00
2019-04-06T12:05:31.873Z,76.00
2019-04-06T12:08:09.630Z,76.60
2019-04-06T12:10:56.509Z,78.20
2019-04-06T12:13:40.195Z,74.50
2019-04-06T12:16:14.927Z,73.60
2019-04-06T12:18:43.793Z,72.60
2019-04-06T12:21:12.792Z,73.00
2019-04-06T12:23:58.293Z,73.90
2019-04-06T12:26:30.846Z,70.50
2019-04-06T12:28:59.840Z,69.90
2019-04-06T12:31:31.708Z,73.00
2019-04-06T12:34:04.711Z,72.60
2019-04-06T12:36:50.193Z,79.20
2019-04-06T12:39:37.340Z,88.00
2019-04-06T12:42:07.392Z,88.60
2019-04-06T12:44:34.241Z,88.60
2019-04-06T12:47:03.028Z,89.40
2019-04-06T12:49:37.496Z,90.40
2019-04-06T12:52:15.895Z,92.00
2019-04-06T12:54:44.510Z,88.70
2019-04-06T12:57:13.133Z,84.80
2019-04-06T12:59:39.864Z,84.80
2019-04-06T13:02:14.728Z,80.40
2019-04-06T13:04:58.126Z,82.20
2019-04-06T13:07:33.380Z,77.50
2019-04-06T13:10:01.978Z,74.50
2019-04-06T13:12:39.986Z,73.10
2019-04-06T13:15:16.510Z,75.70
2019-04-06T13:17:45.125Z,76.10
2019-04-06T13:20:12.029Z,74.40
2019-04-06T13:22:40.631Z,70.50
2019-04-06T13:25:13.425Z,67.40
2019-04-06T13:27:49.326Z,67.80
2019-04-06T13:30:18.884Z,72.90
2019-04-06T13:32:45.597Z,67.40
2019-04-06T13:35:14.188Z,68.90
2019-04-06T13:37:42.864Z,69.70
2019-04-06T13:40:13.940Z,77.00
2019-04-06T13:42:51.355Z,74.50
2019-04-06T13:45:26.037Z,71.70
2019-04-06T13:47:55.931Z,71.60
2019-04-06T13:50:25.896Z,71.60
2019-04-06T13:52:56.989Z,73.10
2019-04-06T13:55:31.404Z,66.50
2019-04-06T13:58:13.205Z,64.80
2019-04-06T14:00:45.966Z,63.60
2019-04-06T14:03:31.356Z,63.50
2019-04-06T14:05:58.126Z,62.50
2019-04-06T14:08:25.134Z,60.70
2019-04-06T14:11:06.811Z,59.90
2019-04-06T14:13:44.226Z,56.50
2019-04-06T14:16:29.854Z,57.80
2019-04-06T14:19:08.810Z,54.60
2019-04-06T14:21:41.022Z,53.00
2019-04-06T14:24:19.772Z,57.50
2019-04-06T14:27:05.400Z,64.40
2019-04-06T14:29:42.837Z,63.80
2019-04-06T14:32:28.009Z,67.70
2019-04-06T14:35:11.560Z,73.40
2019-04-06T14:37:57.147Z,76.90
2019-04-06T14:40:24.371Z,75.00
2019-04-06T14:43:02.550Z,76.90
2019-04-06T14:45:44.563Z,76.50
2019-04-06T14:48:22.513Z,76.50
2019-04-06T14:50:51.818Z,77.60
2019-04-06T14:53:20.423Z,77.70
2019-04-06T14:56:00.895Z,73.50
2019-04-06T14:58:36.420Z,71.10
2019-04-06T15:01:22.065Z,66.90
2019-04-06T15:04:07.398Z,64.40
2019-04-06T15:06:34.137Z,64.30
2019-04-06T15:09:06.828Z,62.60
2019-04-06T15:11:41.854Z,63.30
2019-04-06T15:14:13.338Z,64.60
2019-04-06T15:16:53.953Z,65.00
2019-04-06T15:19:32.924Z,66.30
2019-04-06T15:22:18.280Z,64.50
2019-04-06T15:25:02.381Z,65.10
2019-04-06T15:27:43.394Z,66.00
2019-04-06T15:30:18.008Z,62.90
2019-04-06T15:32:47.835Z,62.20
2019-04-06T15:35:19.612Z,62.90
2019-04-06T15:38:05.406Z,67.40
2019-04-06T15:40:47.191Z,81.20
2019-04-06T15:43:21.934Z,83.90
2019-04-06T15:45:53.841Z,86.10
2019-04-06T15:48:36.981Z,88.60
2019-04-06T15:51:15.591Z,93.30
2019-04-06T15:53:44.339Z,95.50
2019-04-06T15:56:11.091Z,97.00
2019-04-06T15:58:46.787Z,99.20
2019-04-06T16:01:19.395Z,99.90
2019-04-06T16:03:55.224Z,99.90
2019-04-06T16:06:35.685Z,99.90
2019-04-06T16:09:23.458Z,99.90
2019-04-06T16:12:08.308Z,99.20
2019-04-06T16:14:46.011Z,99.90
2019-04-06T16:17:24.085Z,99.90
2019-04-06T16:20:05.164Z,99.90
2019-04-06T16:22:40.479Z,99.90
2019-04-06T16:25:16.288Z,99.90
2019-04-06T16:28:02.757Z,98.50
2019-04-06T16:30:50.467Z,93.00
2019-04-06T16:33:18.587Z,92.70
2019-04-06T16:35:45.366Z,88.40
2019-04-06T16:38:14.476Z,84.90
2019-04-06T16:40:59.492Z,88.10
2019-04-06T16:43:28.199Z,90.10
2019-04-06T16:45:56.928Z,90.60
2019-04-06T16:48:23.779Z,90.90
2019-04-06T16:51:02.962Z,90.90
2019-04-06T16:53:48.729Z,88.60
2019-04-06T16:56:27.549Z,88.50
2019-04-06T16:58:59.990Z,86.90
2019-04-06T17:01:42.481Z,84.40
2019-04-06T17:04:27.460Z,85.40
2019-04-06T17:07:05.259Z,81.80
2019-04-06T17:09:43.756Z,79.20
2019-04-06T17:12:28.575Z,75.40
2019-04-06T17:15:04.101Z,73.00
2019-04-06T17:17:41.953Z,76.20
2019-04-06T17:20:17.945Z,76.00
2019-04-06T17:22:44.898Z,75.20
2019-04-06T17:25:20.801Z,77.00
2019-04-06T17:28:02.995Z,77.60
2019-04-06T17:30:38.269Z,76.40
2019-04-06T17:33:16.504Z,74.60
2019-04-06T17:35:49.349Z,74.20
2019-04-06T17:38:19.507Z,74.60
2019-04-06T17:41:02.860Z,73.50
2019-04-06T17:43:29.905Z,71.50
2019-04-06T17:46:10.559Z,70.20
2019-04-06T17:48:48.427Z,68.50
2019-04-06T17:51:22.899Z,67.30
2019-04-06T17:53:54.765Z,66.90
2019-04-06T17:56:29.505Z,64.70
2019-04-06T17:59:10.017Z,67.10
2019-04-06T18:01:39.991Z,66.30
2019-04-06T18:04:25.423Z,68.50
2019-04-06T18:06:55.042Z,68.80
2019-04-06T18:09:36.330Z,70.60
2019-04-06T18:12:08.990Z,71.10
2019-04-06T18:14:35.936Z,72.30
2019-04-06T18:17:03.334Z,72.40
2019-04-06T18:19:30.130Z,73.40
2019-04-06T18:21:57.291Z,73.90
2019-04-06T18:24:24.918Z,72.80
2019-04-06T18:26:52.003Z,72.60
2019-04-06T18:29:18.793Z,73.30
2019-04-06T18:31:48.330Z,74.30
2019-04-06T18:34:16.061Z,74.40
2019-04-06T18:36:47.934Z,75.60
2019-04-06T18:39:16.099Z,76.30
2019-04-06T18:41:43.246Z,76.80
2019-04-06T18:44:10.052Z,80.20
2019-04-06T18:46:37.152Z,82.00
2019-04-06T18:49:04.093Z,83.80
2019-04-06T18:51:30.904Z,84.90
2019-04-06T18:53:58.487Z,83.80
2019-04-06T18:56:25.474Z,84.20
2019-04-06T18:58:52.866Z,84.10
2019-04-06T19:01:20.360Z,84.10
2019-04-06T19:03:47.324Z,84.10
2019-04-06T19:06:14.693Z,83.50
2019-04-06T19:08:42.067Z,82.40
2019-04-06T19:11:09.689Z,82.50
2019-04-06T19:13:36.776Z,80.00
2019-04-06T19:16:03.878Z,81.80
2019-04-06T19:18:30.939Z,82.50
2019-04-06T19:20:58.122Z,82.80
2019-04-06T19:23:25.321Z,83.60
2019-04-06T19:25:52.373Z,83.50
2019-04-06T19:28:19.155Z,83.40
2019-04-06T19:30:46.918Z,84.00
2019-04-06T19:33:23.312Z,84.00
2019-04-06T19:35:43.043Z,85.00
2019-04-06T19:38:10.887Z,85.30
2019-04-06T19:40:39.478Z,84.30
2019-04-06T19:43:06.816Z,82.40
2019-04-06T19:45:33.769Z,83.00
2019-04-06T19:48:00.809Z,82.30
2019-04-06T19:50:27.877Z,81.90
2019-04-06T19:52:55.240Z,81.90
2019-04-06T19:55:22.880Z,81.70
2019-04-06T19:57:49.866Z,81.10
2019-04-06T20:00:17.780Z,81.70
2019-04-06T20:02:44.922Z,81.40
2019-04-06T20:05:12.322Z,81.30
2019-04-06T20:07:39.189Z,81.10
2019-04-06T20:10:07.254Z,80.60
2019-04-06T20:12:34.435Z,80.40
2019-04-06T20:15:01.880Z,80.40
2019-04-06T20:17:28.860Z,79.80
2019-04-06T20:19:56.365Z,79.70
2019-04-06T20:22:23.656Z,79.70
2019-04-06T20:24:50.932Z,78.90
2019-04-06T20:27:18.598Z,78.80
2019-04-06T20:29:45.730Z,76.50
2019-04-06T20:32:13.330Z,76.80
2019-04-06T20:34:41.297Z,74.80
2019-04-06T20:37:08.463Z,74.60
2019-04-06T20:39:35.660Z,75.80
2019-04-06T20:42:02.923Z,76.40
2019-04-06T20:44:30.215Z,76.70
2019-04-06T20:46:57.302Z,76.70
2019-04-06T20:49:24.719Z,76.60
2019-04-06T20:51:51.523Z,76.60
2019-04-06T20:54:18.307Z,76.40
2019-04-06T20:56:53.998Z,76.00
2019-04-06T20:59:14.279Z,75.50
2019-04-06T21:01:41.638Z,75.90
2019-04-06T21:04:09.203Z,75.80
2019-04-06T21:06:36.051Z,76.10
2019-04-06T21:09:07.327Z,76.40
2019-04-06T21:11:34.334Z,76.80
2019-04-06T21:14:01.166Z,76.80
2019-04-06T21:16:27.979Z,77.80
2019-04-06T21:18:54.774Z,78.00
2019-04-06T21:21:22.032Z,77.70
2019-04-06T21:23:49.372Z,79.00
2019-04-06T21:26:17.125Z,79.40
2019-04-06T21:28:44.091Z,78.80
2019-04-06T21:31:11.285Z,77.60
2019-04-06T21:33:38.746Z,76.20
2019-04-06T21:36:06.014Z,78.00
2019-04-06T21:38:33.194Z,78.80
2019-04-06T21:41:00.169Z,79.10
2019-04-06T21:43:26.961Z,79.50
2019-04-06T21:45:54.327Z,79.40
2019-04-06T21:48:22.443Z,79.40
2019-04-06T21:50:49.305Z,79.30
2019-04-06T21:53:16.120Z,80.10
2019-04-06T21:55:43.517Z,80.00
2019-04-06T21:58:10.835Z,81.10
2019-04-06T22:00:51.219Z,80.90
2019-04-06T22:03:19.005Z,81.70
2019-04-06T22:05:46.477Z,82.20
2019-04-06T22:08:13.309Z,81.90
2019-04-06T22:10:40.108Z,81.90
2019-04-06T22:13:07.000Z,81.80
2019-04-06T22:15:33.979Z,81.10
2019-04-06T22:18:01.190Z,80.60
2019-04-06T22:20:28.215Z,80.20
2019-04-06T22:22:55.116Z,81.20
2019-04-06T22:25:22.625Z,80.70
2019-04-06T22:27:50.244Z,81.20
2019-04-06T22:30:19.733Z,81.70
2019-04-06T22:32:46.932Z,81.40
2019-04-06T22:35:14.068Z,82.20
2019-04-06T22:37:40.880Z,82.80
2019-04-06T22:40:08.577Z,82.50
2019-04-06T22:42:36.512Z,82.40
2019-04-06T22:45:08.325Z,83.20
2019-04-06T22:47:35.140Z,83.50
2019-04-06T22:50:02.701Z,83.00
2019-04-06T22:52:29.770Z,83.10
2019-04-06T22:54:56.877Z,83.60
2019-04-06T22:57:23.956Z,83.20
2019-04-06T22:59:51.090Z,83.10
2019-04-06T23:02:18.003Z,82.80
2019-04-06T23:04:50.639Z,82.50
2019-04-06T23:07:17.661Z,83.00
2019-04-06T23:09:45.100Z,83.60
2019-04-06T23:12:12.922Z,84.20
2019-04-06T23:14:40.235Z,84.70
2019-04-06T23:17:07.033Z,84.40
2019-04-06T23:19:33.836Z,84.60
2019-04-06T23:22:01.053Z,84.30
2019-04-06T23:24:28.192Z,83.50
2019-04-06T23:26:54.975Z,83.80
2019-04-06T23:29:22.167Z,83.60
2019-04-06T23:31:49.531Z,83.20
2019-04-06T23:34:16.605Z,83.10
2019-04-06T23:36:44.689Z,82.40
2019-04-06T23:39:11.579Z,82.20
2019-04-06T23:41:38.275Z,82.00
2019-04-06T23:44:05.099Z,81.60
2019-04-06T23:46:31.915Z,81.70
2019-04-06T23:48:59.724Z,82.60
2019-04-06T23:51:28.279Z,82.40
2019-04-06T23:53:55.179Z,81.30
2019-04-06T23:56:22.007Z,82.40
2019-04-06T23:58:49.111Z,82.80
